Latest Observation

114 Stations

10 Minute Data
as of 9/5/26 7:47 AM PDT
Station Date Time Temp (°F) RH (%) Dew Pt (°F) Wind Spd (mph) Wind Dir (°) Wind Gust (mph) Wind Gst Dir (°) Latest Rain (In) Soil Moist (%) Soil Temp (°F) Daily Rain (In) Daily Min Temp (°F) Daily Max Temp (°F) Daily Max Wind (mph)
Hobart Mills 9/5/26 0740 45.4   1.5 79   15 39.3   6.1 0.8   0.3 WSW | 237 4.0   1.5 WSW | 246 0.00 7.4   0.1 59.4   2.5 0.00 39.0   7.8 46.6   3.1 4.2   12.5
Prosser Dam 9/5/26 0740 37.3   11.0 96   5 36.4   9.6 0.9   2.3 SSE | 158 2.9   3.4 ESE | 108 0.00 5.2   0.1 58.8   1.7 0.00 35.3   12.8 47.0   5.5 5.3   7.0
West Incline Village 9/5/26 0740 45.3   0.9 74   20 37.4   5.4 0.2   3.5 N | 9 2.5   7.7 NNE | 18 0.00 11.7   0.0 55.5   1.0 0.00 43.4   0.4 46.4   0.2 9.2   12.4
Incline Village (Fairview Blvd) 9/5/26 0740 48.8   2.7 70   21 39.4   4.0 0.3   1.0 S | 170 3.8   6.5 WSW | 238 0.00 7.6   0.1 67.6   1.5 0.00 46.3   0.7 48.9   0.6 11.0   7.0
Incline Village (Diamond Peak) 9/5/26 0740 45.6   1.4 70   22 36.5   5.6 0.6   2.1 SSE | 153 3.7   3.0 SSE | 152 0.00 2.4   0.1 55.9   1.7 0.00 44.2   0.2 46.2   0.4 9.3   3.4
Incline Village (Mill Creek) 9/5/26 0740 49.8   0.6 63   18 37.7   5.9 0.8   2.4 W | 278 5.2   2.0 WNW | 295 0.00 2.9   0.0 60.4   0.9 0.00 45.2   3.5 51.0   0.2 12.5   6.3
Incline Village (Lakeshore Blvd) 9/5/26 0740 52.9   1.1 65   16 41.6   4.8 1.7   4.7 SSW | 194 5.3   6.1 SW | 228 0.00 21.9   2.0 57.5   1.5 0.00 44.0   7.0 54.2   0.2 9.7   7.3
Glenbrook 9/5/26 0740 44.8   7.7 74   6 36.9   5.4 0.6   5.4 E | 93 3.0   13.0 E | 99 0.00 43.5   0.1 58.2   0.1 0.00 40.1   11.6 45.3   9.3 6.2   20.1
Zephyr Cove 9/5/26 0740 47.3   3.6 71   4 38.6   1.8 0.0   0.8 N | 0 0.0   3.7 ENE | 70 0.00 2.8   0.0 57.3   2.5 0.00 44.6   5.3 47.4   4.1 2.9   9.7
Kingsbury Grade 9/5/26 0740 42.5   6.4 74   2 34.8   5.4 1.0   1.2 NE | 50 3.4   10.2 E | 84 0.00 2.1   0.2 61.6   2.7 0.00 39.2   8.3 43.7   5.9 5.8   12.5
South Daggett Pass (Ridge) 9/5/26 0740 45.7   0.3 64   14 34.3   4.8 0.0   1.8 NNW | 340 2.1   4.6 NNW | 339 0.00 2.2   0.0 60.9   0.9 0.00 41.9   2.1 45.9   0.1 10.4   8.0
Palomino Valley 9/5/26 0740 44.3   13.8 74   10 36.4   9.2 0.1   2.5 S | 177 1.6   3.8 S | 183 0.00 6.5   0.1 72.6   1.5 0.00 38.8   15.4 50.2   10.9 6.6   4.5
East Cold Springs 9/5/26 0740 48.7   2.3 69   11 39.0   6.1 1.2   3.8 SE | 142 2.2   6.2 SSE | 150 0.00 1.5   0.0 68.8   1.1 0.00 45.4   5.2 51.6   1.8 14.7   3.6
Peavine 9/5/26 0740 48.9   3.0 65   1 37.7   3.2 5.4   2.2 E | 93 6.8   2.9 ESE | 106 0.00 4.1   0.1 62.6   2.0 0.00 44.9   5.2 53.4   0.6 28.9   2.9
West Verdi Peak 9/5/26 0840 46.6   0.0 70   19 37.5   6.3 2.7   1.1 SE | 127 5.1   4.6 ESE | 115 0.00 6.4   0.1 64.2   1.8 0.00 43.0   3.5 48.7   0.2 18.0   1.9
West Verdi 9/5/26 0740 44.8   8.3 81   4 39.3   6.6 0.0   5.6 N | 0 0.0   9.7 S | 191 0.00 6.0   0.1 73.9   3.0 0.00 44.4   8.0 54.2   2.1 7.9   19.3
South Verdi 9/5/26 0740 47.4   5.3 69   2 37.6   6.0 1.8   1.7 SSE | 158 3.0   4.3 SE | 146 0.00 10.0   0.1 63.9   2.5 0.00 46.8   4.7 53.0   2.0 18.5   12.2
Northwest Reno 9/5/26 0740 51.2   5.3 64   4 39.3   3.4 8.6   1.7 NNE | 16 11.4   5.7 NNE | 25 0.00 24.4   0.2 70.4   2.3 0.00 48.4   6.5 55.4   1.9 12.0   14.0
North Lawton 8/28/26 1620 63.8   17.1 74   52 55.4   16.5 1.5   11.6 ESE | 121 5.1   19.0 SE | 124 0.00 - 78.2   0.0 0.05 59.2   7.5 71.9   13.3 20.4   4.6
West Reno (Mogul) 9/5/26 0740 49.5   5.6 65   0 38.3   5.5 0.9   0.5 SW | 227 5.1   0.1 SW | 230 0.00 19.4   0.1 76.4   0.8 0.00 47.3   6.0 55.1   1.9 10.4   0.5
Caughlin (Hunter Lake Trail) 9/5/26 0740 51.3   3.3 64   2 39.7   4.0 0.0   4.0 N | 0 0.0   5.6 NW | 312 0.00 16.0   0.2 68.9   2.6 0.00 46.7   7.1 52.6   5.1 9.1   8.8
ArrowCreek 9/5/26 0740 51.6   5.7 62   3 39.1   4.2 0.0   8.0 N | 0 0.0   14.8 NNE | 17 0.00 - 32.0   0.0 0.00 47.4   8.8 53.1   6.1 11.0   19.6
Tracy 9/5/26 0740 52.2   10.8 61   13 39.0   4.0 4.1   3.1 WSW | 257 6.5   3.7 WSW | 251 0.00 15.5   0.1 74.9   1.4 0.00 48.7   13.5 57.2   7.2 7.6   7.2
Virginia Highlands 9/5/26 0740 50.9   3.6 65   8 39.7   0.1 6.5   0.6 SE | 145 10.7   1.1 SSE | 164 0.00 7.8   0.0 71.9   0.4 0.00 47.7   5.8 51.5   3.2 12.5   7.7
Virginia City 9/5/26 0740 47.8   5.1 70   10 38.5   0.8 2.4   7.1 NNE | 23 3.5   14.4 NNE | 24 0.00 4.7   0.0 70.3   0.7 0.00 46.0   6.9 50.8   3.0 6.7   21.5
Six Mile Canyon 9/5/26 0740 52.5   9.6 58   13 38.3   2.3 0.5   7.3 ESE | 106 2.0   10.9 E | 96 0.00 11.9   0.2 72.4   1.6 0.00 49.6   12.2 57.6   5.0 10.6   3.0
Mt Rose Highway 9/5/26 0740 47.7   1.2 67   11 37.2   2.8 1.2   4.7 E | 88 4.8   11.2 NE | 45 0.00 7.4   0.1 59.3   1.0 0.00 45.1   0.2 47.8   0.5 23.4   8.0
Pleasant Valley 9/5/26 0740 45.6   11.8 73   12 37.5   6.8 0.0   10.8 N | 0 0.0   16.3 SSW | 197 0.00 2.2   0.0 71.6   3.2 0.00 41.9   14.8 49.7   10.5 7.9   19.1
New Washoe City 9/5/26 0740 46.4   12.0 70   17 37.3   4.0 1.6   10.5 NE | 45 5.1   16.9 NE | 43 0.00 3.4   0.1 70.6   0.7 0.00 45.2   12.4 53.3   5.5 10.3   14.6
Franktown Creek 9/5/26 0740 49.1   6.9 71   2 40.1   6.0 0.5   5.0 SSE | 156 2.2   11.7 S | 189 0.00 7.1   0.0 69.3   1.5 0.00 45.0   10.1 57.9   1.5 15.2   10.3
Musgrove Creek 9/5/26 0740 49.6   3.6 64   4 38.0   4.8 1.7   0.1 NE | 48 3.5   2.1 NE | 47 0.00 10.2   0.0 59.8   0.2 0.00 49.2   2.7 54.4   2.5 10.3   0.6
East Carson 11/23/24 0110 28.6   28.4 - - 4.7   11.0 SW | 220 14.7   10.1 SW | 219 0.02 - 50.9   0.1 0.02 -25.9   79.1 42.9   14.6 16.0   10.7
Kings Canyon 9/5/26 0740 50.8   6.9 65   11 39.5   1.7 1.8   2.3 S | 176 3.6   8.9 SSW | 211 0.00 4.1   0.1 65.0   2.0 0.00 43.6   13.5 55.5   3.3 7.9   9.3
Carson City (Voltaire Canyon) 9/5/26 0740 53.5   5.8 60   9 40.1   1.4 6.4   8.2 N | 3 9.9   10.4 N | 1 0.00 2.8   0.1 76.0   0.9 0.00 51.0   7.8 57.7   2.5 12.0   25.1
Jacks Valley 9/5/26 0740 50.8   7.9 63   12 38.7   1.8 1.4   6.7 SW | 235 3.1   11.7 WSW | 245 0.00 4.5   0.1 69.0   4.2 0.00 47.3   10.4 55.5   3.3 7.8   22.0
Genoa 9/5/26 0740 51.1   9.4 64   12 39.2   3.2 0.0   0.9 N | 0 0.0   7.0 SSW | 210 0.00 2.1   0.2 58.6   7.1 0.00 45.5   14.2 57.8   3.6 9.9   3.8
South Genoa (Walleys Hot Springs) 9/5/26 0740 49.5   12.1 69   20 39.6   2.4 3.9   1.1 N | 8 6.3   3.0 ENE | 78 0.00 4.6   0.0 72.6   1.0 0.00 42.8   17.8 56.4   6.2 9.6   10.8
SW Gardnerville (HWY 88) 9/5/26 0740 46.4   13.8 75   25 38.8   2.7 2.7   11.8 WNW | 285 4.8   15.5 NW | 318 0.00 2.8   0.0 66.8   1.3 0.00 44.1   15.5 55.8   5.4 13.5   16.6
Sheridan 9/5/26 0740 51.5   8.2 61   11 38.5   2.8 2.2   6.1 N | 353 5.3   9.4 NNE | 27 0.00 1.0   0.1 68.6   2.5 0.00 46.7   12.5 58.0   3.7 9.8   12.8
Ruhenstroth 9/5/26 0740 54.9   4.2 52   4 37.4   2.1 9.5   1.9 SE | 127 12.8   7.1 SE | 128 0.00 6.6   0.1 66.7   3.8 0.00 50.3   8.5 56.7   3.3 14.9   16.8
Double Spring 9/5/26 0740 48.1   8.5 66   18 37.4   0.0 4.9   2.3 SSE | 165 7.7   6.8 SSE | 166 0.00 24.6   0.3 66.0   2.1 0.00 37.7   17.0 48.9   7.8 7.7   8.7
North Topaz Lake 9/5/26 0740 52.8   6.1 57   11 38.2   0.2 1.6   6.0 SE | 125 3.4   11.4 ESE | 108 0.00 7.3   0.2 63.2   5.0 0.00 50.2   8.4 56.3   3.3 7.7   12.5
Wild Oat Mountain 9/5/26 0740 51.4   5.4 60   11 37.9   0.4 1.4   8.1 SSE | 152 3.1   15.2 ESE | 116 0.00 5.5   0.1 65.3   3.6 0.00 49.2   7.3 54.0   3.6 6.6   14.8
Smith Valley 9/5/26 0740 49.4   13.8 62   22 36.9   1.8 1.0   5.7 SE | 130 2.0   11.9 SE | 125 0.00 2.8   0.0 74.1   1.4 0.00 44.9   17.7 57.4   6.5 8.8   9.2
Pine Grove Mountain 9/5/26 0740 43.3   5.5 65   13 32.4   0.2 2.3   5.6 SW | 225 3.7   11.1 WSW | 242 0.00 6.4   0.2 60.7   0.8 0.00 40.9   4.7 43.8   5.2 10.8   11.3
Paradise Hill 9/5/26 0740 53.3   1.2 56   6 38.1   3.6 5.9   1.7 NNE | 30 8.7   4.1 NNE | 26 0.00 9.7   0.1 68.4   2.5 0.00 48.0   5.1 59.0   1.1 8.8   13.9
Winnemucca 9/5/26 0740 58.0   4.1 45   24 36.8   7.3 4.3   0.9 S | 176 6.1   1.2 S | 180 0.00 5.6   0.0 71.7   0.7 0.00 50.3   1.8 58.1   1.1 9.2   6.0
NE Elko 9/5/26 0740 48.6   1.9 63   10 36.6   2.5 0.2   1.9 NNW | 333 2.0   1.4 NNW | 338 0.00 5.6   0.0 68.6   0.9 0.00 40.4   4.5 53.7   8.8 7.0   4.8
North Elko 9/5/26 0740 52.2   3.4 60   8 38.7   0.7 1.7   0.7 SE | 124 3.4   1.5 ESE | 107 0.00 24.7   0.1 70.3   0.2 0.00 48.9   4.8 55.2   3.8 9.7   3.7
South Elko 9/5/26 0740 49.8   6.1 67   15 39.3   0.9 0.0   0.0 NE | 37 0.7   0.4 NE | 41 0.00 13.4   0.1 65.0   0.8 0.00 48.0   5.1 92.4   17.6 5.5   6.2
Lamoille 9/5/26 0740 47.7   8.3 70   17 38.4   0.8 2.3   2.0 N | 353 5.0   0.2 NNW | 344 0.00 6.0   0.1 66.3   0.1 0.00 44.1   2.5 51.2   7.2 9.4   3.7
Reid Gardner Sub 9/5/26 0740 68.4   1.7 28   2 34.2   0.1 0.0   0.7 N | 0 0.0   2.4 WSW | 244 0.00 22.9   0.0 86.2   0.2 0.00 60.7   0.9 79.3   2.7 7.2   0.1
Corn Creek 9/5/26 0740 72.6   0.4 32   4 41.1   2.6 7.9   4.4 ESE | 120 11.6   11.3 ESE | 117 0.00 3.0   0.0 84.3   0.0 0.00 69.3   1.0 78.5   0.0 27.2   4.7
Lucky Strike 9/5/26 0740 68.8   0.6 21   2 27.5   1.3 3.8   5.6 SE | 130 5.3   8.4 ESE | 109 0.00 3.1   0.0 77.2   1.4 0.00 61.7   1.2 69.1   1.5 11.2   13.2
Lower Angel Peak 9/5/26 0740 60.1   1.2 29   1 27.6   2.1 2.8   2.0 SE | 130 4.1   0.1 SE | 131 0.00 3.1   0.0 71.9   0.1 0.00 53.9   2.0 66.4   0.7 19.0   2.9
Angel Peak 9/5/26 0740 55.2   2.6 23   7 18.1   8.5 4.0   14.5 SE | 140 8.6   22.7 E | 98 0.00 2.5   0.0 62.3   0.7 0.00 52.7   1.8 58.0   0.4 37.1   4.7
Upper Kyle Canyon 9/5/26 0740 61.1   2.0 16   11 14.4   10.9 2.9   4.2 NW | 324 13.9   6.7 W | 278 0.00 7.7   0.0 74.5   0.3 0.00 57.6   1.1 61.6   1.5 34.2   10.4
Mt Charleston 9/5/26 0740 62.1   1.1 18   9 17.5   9.1 5.2   1.6 ESE | 102 16.9   5.7 NNE | 18 0.00 13.2   0.1 66.5   0.3 0.00 57.4   1.2 62.5   0.9 28.6   0.1
Mid Kyle Canyon 9/5/26 0740 65.6   2.3 22   1 26.3   2.5 4.2   7.9 E | 100 8.2   14.4 ESE | 103 0.00 5.8   0.0 73.2   0.5 0.00 59.2   4.8 67.9   0.4 28.6   6.5
Blue Diamond 9/5/26 0740 76.0   0.4 26   0 38.5   0.4 7.7   0.5 NW | 325 13.2   2.2 NW | 323 0.00 1.2   0.0 83.7   0.2 0.00 68.2   2.5 77.4   0.9 17.6   10.2
Artesian Sub 9/5/26 0740 80.4   0.9 25   4 41.7   2.9 3.7   3.6 SE | 141 8.8   4.5 SE | 140 0.00 11.7   0.0 92.3   0.2 0.00 77.5   0.6 85.1   0.6 10.3   4.2
North Henderson 9/5/26 0740 83.3   1.9 22   6 40.9   5.0 4.7   4.0 S | 187 9.2   6.7 S | 175 0.00 10.5   0.6 95.5   0.4 0.00 77.6   1.5 87.1   1.2 16.5   0.9
Sandy Valley 9/5/26 0740 72.2   0.3 39   0 45.8   0.4 0.4   6.7 ENE | 62 2.2   7.9 NE | 49 0.00 7.4   0.2 84.6   0.0 0.00 68.2   0.2 76.3   0.1 9.3   0.9
Searchlight 9/5/26 0750 71.0   1.5 33   3 40.2   3.6 0.0   5.7 N | 0 0.0   8.8 NW | 306 0.00 5.7   0.0 81.5   0.4 0.00 65.6   0.8 72.9   0.1 13.3   4.0
Laughlin 9/5/26 0740 81.7   0.7 19   1 35.5   1.0 1.3   1.7 NNE | 25 2.7   2.0 NNE | 33 0.00 4.4   0.0 97.1   0.7 0.00 79.4   0.6 89.4   1.2 7.0   3.6
31Mission Hills 9/5/26 0740 75.7   0.8 25   4 37.6   3.5 8.7   1.4 SSE | 149 10.7   0.2 SSE | 156 0.00 6.2   0.1 82.4   0.2 0.00 74.1   0.2 81.9   2.2 13.7   1.5
32 Enterprise Sierra Cliffs 9/5/26 0740 75.1   1.4 24   6 35.8   4.2 6.3   3.6 S | 178 11.2   7.4 SSW | 194 0.00 1.2   0.0 79.4   0.0 0.00 68.2   1.4 78.1   0.2 18.6   0.9
29 Calico Basin 9/5/26 0740 73.3   0.6 23   1 33.6   1.9 2.4   3.7 SW | 214 4.0   4.7 WSW | 237 0.00 2.4   0.0 82.8   0.1 0.00 68.9   0.6 76.2   0.6 8.3   16.2
28 Indian Springs 9/5/26 0740 66.9   5.2 28   2 33.2   6.5 3.0   2.6 WSW | 258 5.2   4.5 SSW | 204 0.00 4.3   0.0 82.6   1.0 0.00 63.4   1.5 74.1   0.7 10.2   3.0
30 Jean 9/5/26 0740 67.3   3.9 34   1 37.7   3.9 5.1   6.4 S | 176 7.6   9.4 SSW | 192 0.00 4.8   0.1 79.8   0.6 0.00 65.9   1.4 73.8   0.5 13.7   4.5
VC Highlands NW 9/5/26 0740 49.1   3.4 63   5 36.9   0.9 4.4   0.6 ESE | 120 6.8   4.8 ESE | 122 0.00 1.4   0.1 58.2   4.7 0.00 44.4   6.8 49.8   3.1 9.4   8.6
Glenbrook-Spooner Summit 9/5/26 0740 43.6   4.3 72   1 35.0   3.7 0.9   1.5 WSW | 246 3.0   6.1 WSW | 255 0.00 7.7   0.0 61.2   2.5 0.00 37.2   9.5 44.2   4.6 10.9   12.9
Hobo Hot Springs 9/5/26 0740 46.6   14.0 71   23 37.6   2.8 1.0   3.1 NNE | 12 2.7   6.0 NNE | 15 0.00 1.0   0.1 65.6   3.6 0.00 41.5   18.3 52.8   8.8 8.1   16.8
Jack Valley Ranch 2 9/5/26 0740 52.7   5.5 56   6 37.6   2.0 1.6   5.0 WSW | 250 3.4   12.9 W | 278 0.00 2.1   0.0 71.2   1.7 0.00 48.4   8.7 55.3   3.2 12.5   10.1
Genoa North 2 9/5/26 0740 51.2   8.2 59   10 37.3   2.8 0.1   2.7 SSW | 194 1.4   7.7 S | 186 0.00 0.8   0.0 68.5   3.7 0.00 44.7   13.6 53.8   6.2 8.3   15.4
Mottsville 2 9/5/26 0740 50.9   9.0 61   13 37.8   2.5 0.7   4.2 NNW | 338 2.5   9.6 W | 275 0.00 1.3   0.0 68.8   2.1 0.00 43.6   15.5 57.2   4.8 12.2   16.3
Kingsbury Village 3 9/5/26 0740 40.4   3.9 73   5 32.4   5.4 1.7   0.2 NE | 34 3.6   6.7 NE | 38 0.00 3.2   0.0 55.3   3.8 0.00 38.5   4.7 42.6   2.4 6.3   5.6
Kingsbury-Benjamin Dr 2 9/5/26 0740 44.6   1.6 63   10 33.0   5.3 0.5   0.7 SW | 224 2.1   2.7 SW | 218 0.00 2.8   0.1 60.8   3.8 0.00 41.0   3.9 45.6   1.4 10.1   4.1
Smith Valley-Wellington 9/5/26 0740 50.5   12.6 57   19 36.0   1.3 6.4   0.7 SW | 222 10.1   3.1 SW | 231 0.00 3.4   0.1 77.9   0.8 0.00 43.6   17.1 54.6   8.7 11.2   3.6
Sheridan South 2 9/5/26 0740 52.1   7.0 63   12 39.6   0.9 2.6   7.2 NNE | 23 8.3   12.0 N | 354 0.00 0.5   0.0 67.2   3.7 0.00 47.3   11.4 60.9   0.5 25.1   0.2
Silver Springs 9/5/26 0740 51.6   12.0 58   16 37.3   2.9 2.1   8.2 SSW | 208 3.6   12.2 SSW | 206 0.00 4.8   0.1 74.2   2.0 0.00 47.8   15.0 58.9   5.8 16.2   6.7
Fernley 9/5/26 0740 51.8   9.9 60   8 38.4   5.6 2.8   2.5 SSW | 192 4.8   4.1 S | 187 0.00 3.0   0.1 67.6   4.5 0.00 47.8   13.5 55.2   8.8 8.1   10.6
Spanish Springs 9/5/26 0740 49.4   8.9 66   11 38.5   3.5 0.0   1.0 WNW | 291 0.7   1.7 E | 89 0.00 9.9   0.2 70.9   2.3 0.00 42.3   15.2 50.8   10.0 3.7   12.0
Suttcliffe South 2 9/5/26 0740 45.5   9.3 71   8 36.5   11.9 4.6   1.4 WSW | 246 8.1   2.7 WSW | 247 0.00 3.9   0.1 62.9   4.6 0.00 39.4   14.8 53.1   6.5 8.1   6.3
Lemmon Valley North 9/5/26 0740 39.6   13.6 79   6 33.6   11.0 0.7   9.0 NE | 54 2.6   15.5 NE | 48 0.00 2.0   0.1 68.3   1.2 0.00 34.8   18.1 52.5   1.9 11.8   6.6
Lemmon Valley NW 3 9/5/26 0740 45.3   9.4 73   7 37.3   6.6 0.3   8.5 SE | 143 2.1   11.9 SSE | 148 0.00 1.1   0.1 65.5   4.3 0.00 39.6   14.1 53.6   4.6 6.5   13.7
VC Highlands North 9/5/26 0740 49.0   5.5 66   13 38.2   0.2 3.3   2.2 ENE | 77 6.1   7.2 ENE | 76 0.00 4.1   0.4 55.9   8.9 0.00 38.0   15.2 49.5   5.3 6.1   15.0
Upper Voltaire Cyn 9/5/26 0740 51.0   4.4 61   7 38.0   0.9 6.8   5.6 NNW | 345 9.6   11.7 NNW | 344 0.00 1.1   0.1 63.6   4.1 0.00 48.9   5.8 53.8   2.0 11.6   19.8
Yerington NW 9/5/26 0740 49.9   11.7 67   21 39.3   1.4 1.6   3.9 ESE | 102 2.6   4.3 E | 98 0.00 7.2   0.0 70.0   1.8 0.00 45.2   14.9 57.4   5.5 8.7   7.3
Spanish Springs SW 9/5/26 0740 49.8   8.7 64   10 38.0   3.6 0.2   4.6 ESE | 116 1.6   6.8 ENE | 70 0.00 1.3   0.1 67.5   4.0 0.00 44.6   12.7 52.5   7.0 5.5   11.4
Cosgrave 2 8/27/26 0750 62.9   4.1 34   3 33.8   1.4 2.6   0.5 WSW | 246 4.1   1.0 W | 267 0.00 3.8   0.1 77.4   2.9 0.00 62.7   3.3 77.4   3.5 11.2   3.9
Winnemucca-Grass Valley 2 9/5/26 0740 45.5   3.2 67   10 35.2   6.7 4.0   3.3 S | 188 5.0   2.9 SSW | 194 0.00 7.4   0.2 60.4   3.4 0.00 40.3   8.2 56.4   2.7 7.1   5.6
Winnemucca-Dutch Flat Rd 9/5/26 0740 52.5   0.1 45   22 32.0   9.9 3.4   2.0 NW | 308 4.3   1.4 NW | 305 0.00 6.1   0.0 70.7   0.6 0.00 49.7   1.1 56.8   2.7 13.5   2.5
Paradise Valley 2 9/5/26 0740 47.2   2.0 65   4 36.0   3.4 4.2   1.7 N | 353 5.6   1.1 N | 0 0.00 12.4   0.1 69.8   0.3 0.00 42.9   5.5 57.1   2.1 8.8   7.6
Golconda 2 9/5/26 0740 55.1   2.1 41   27 31.8   10.9 0.9   2.5 SW | 235 2.4   3.1 WSW | 250 0.00 1.7   0.1 66.6   3.1 0.00 50.1   0.7 59.9   0.2 17.6   4.0
Battle Mountain - South 9/5/26 0740 52.2   0.8 54   3 36.0   2.3 0.7   0.6 NNE | 18 2.7   1.4 NE | 55 0.00 9.2   0.0 71.6   0.7 0.00 44.6   6.3 55.2   5.0 4.7   7.1
Geiger Summit 9/5/26 0740 45.3   5.3 100   0 45.3   5.3 4.1   4.4 SSE | 165 8.2   8.8 SE | 128 0.00 5.9   0.1 57.2   3.5 0.00 42.0   8.2 47.9   3.1 12.7   9.6
Combs Canyon 3 9/5/26 0740 52.2   7.0 58   9 38.0   2.0 1.1   5.2 W | 265 2.6   8.3 W | 277 0.00 1.0   0.0 69.6   2.5 0.00 47.5   11.1 54.8   5.3 8.6   13.0
Clear Creek 9/5/26 0740 51.5   4.1 54   1 35.6   3.5 1.2   4.3 NNE | 21 2.6   12.9 NW | 321 0.00 3.4   0.1 64.7   3.1 0.00 46.9   8.1 54.4   2.1 12.8   16.9
Eastlake 2 9/5/26 0740 49.8   8.9 64   14 38.2   1.9 1.4   8.1 SSE | 154 4.2   11.4 SSE | 152 0.00 3.4   0.0 70.4   0.3 0.00 43.6   14.5 57.7   1.9 12.3   11.0
Lovelock-Colado 2 9/5/26 0740 52.7   3.5 50   12 34.4   8.9 4.9   6.5 NNE | 17 6.8   10.3 NNE | 21 0.00 - 71.5   0.4 0.00 45.0   0.6 58.2   0.9 11.3   7.4
Spanish Springs NW 9/5/26 0740 49.5   9.6 66   11 38.6   4.1 0.4   5.2 NNE | 32 1.6   8.3 NE | 52 0.00 12.0   0.2 64.0   3.0 0.00 45.8   12.6 52.9   7.0 6.0   4.0
Battle Mountain NW 9/5/26 0740 56.0   0.5 47   10 35.9   4.3 1.5   1.4 WNW | 285 3.7   3.0 NW | 310 0.00 8.5   0.2 71.3   2.7 0.00 47.1   7.4 58.8   1.2 10.3   2.4
Austin 2 9/5/26 0640 44.6   1.5 71   7 35.9   3.9 0.5   1.8 ESE | 103 1.9   1.9 E | 81 0.00 2.1   0.0 56.8   0.4 0.00 37.5   0.1 47.3   0.9 11.0   2.5
Elko-Osino 9/5/26 0740 47.0   4.0 61   9 34.4   0.1 2.9   0.7 ESE | 107 5.2   1.7 NE | 46 0.00 1.4   0.1 72.0   0.5 0.00 39.2   5.0 52.2   4.4 7.6   3.1
Elko-Bill Fishpond 2 9/5/26 0740 49.1   8.4 66   20 38.2   1.2 1.5   1.6 N | 4 2.5   2.5 N | 0 0.00 3.4   0.0 64.8   0.8 0.00 41.3   7.2 49.5   9.9 7.7   4.1
Spring Creek SE 2 9/5/26 0740 48.5   4.3 64   12 36.8   1.3 0.5   0.1 SSE | 159 2.5   0.6 SE | 139 0.00 0.2   0.1 65.9   0.1 0.00 41.8   2.5 53.0   2.8 5.1   2.5
Spring Creek NW 9/5/26 0730 52.0   0.0 58   8 37.5   3.7 1.8   0.4 E | 99 3.4   0.2 ESE | 114 0.00 2.2   0.0 70.2   0.2 0.00 47.8   1.4 54.4   4.3 6.0   7.7
Elko-Moleen 9/5/26 0740 47.3   3.9 63   10 35.1   0.5 1.1   1.1 SE | 143 2.0   2.0 SSE | 155 0.00 6.2   0.0 74.1   0.2 0.00 41.2   2.5 52.7   5.5 6.7   0.5
Elko-West 9/5/26 0740 48.0   3.5 62   8 35.6   0.2 0.9   0.3 ESE | 106 2.5   0.9 E | 98 0.00 33.0   0.0 65.6   0.2 0.00 39.0   2.6 49.3   6.1 10.2   3.8
Elko-Adobe Creek 9/5/26 0740 48.0   5.7 69   19 38.4   2.5 3.0   0.3 NNE | 29 3.8   2.1 NE | 42 0.00 18.4   0.1 67.2   0.1 0.00 43.8   4.8 49.8   5.7 9.7   3.2
Tuscarora SW 9/5/26 0740 43.8   4.6 77   14 37.2   0.7 1.6   1.1 SW | 233 2.9   0.9 WSW | 238 0.00 6.7   0.1 67.9   2.1 0.00 35.8   6.8 51.1   0.5 6.1   7.6
Elko-Monument Peak 9/5/26 0740 43.6   10.8 66   19 33.2   1.5 0.0   1.9 ENE | 67 0.6   5.0 ENE | 67 0.00 4.0   0.0 66.3   0.8 0.00 31.4   6.6 44.9   12.0 7.5   0.1
Wild Horse 9/5/26 0740 42.3   10.5 75   23 35.1   1.0 0.5   2.8 ENE | 75 2.5   2.4 ENE | 72 0.00 4.4   0.1 62.8   2.1 0.00 33.9   15.2 46.7   7.3 6.8   2.5
Max     83.3 100 45.8 9.5 - 16.9 - 0.00 43.5 97.1 0.00 79.4 92.4 37.1
Avg     52.4 59 36.6 2.3 - 4.6 - 0.00 6.9 68.6 - - - -
Min     37.3 16 14.4 0.0 - 0.0 - 0.00 0.2 32.0 0.00 31.4 42.6 2.9